sensor_id;sensor_type;location;lat;lon;timestamp;P1;durP1;ratioP1;P2;durP2;ratioP2
28003;SDS011;15330;51.234;6.754;2023-07-13T00:00:32;9.32;;;3.30;;
28003;SDS011;15330;51.234;6.754;2023-07-13T00:02:58;8.77;;;2.63;;
28003;SDS011;15330;51.234;6.754;2023-07-13T00:05:23;10.70;;;2.80;;
28003;SDS011;15330;51.234;6.754;2023-07-13T00:07:49;7.93;;;2.83;;
28003;SDS011;15330;51.234;6.754;2023-07-13T00:10:17;7.22;;;2.75;;
28003;SDS011;15330;51.234;6.754;2023-07-13T00:12:42;10.40;;;2.28;;
28003;SDS011;15330;51.234;6.754;2023-07-13T00:15:14;8.10;;;2.38;;
28003;SDS011;15330;51.234;6.754;2023-07-13T00:17:42;12.85;;;3.00;;
28003;SDS011;15330;51.234;6.754;2023-07-13T00:20:10;7.57;;;2.55;;
28003;SDS011;15330;51.234;6.754;2023-07-13T00:22:36;7.57;;;3.05;;
28003;SDS011;15330;51.234;6.754;2023-07-13T00:25:02;17.52;;;3.45;;
28003;SDS011;15330;51.234;6.754;2023-07-13T00:27:27;6.63;;;2.50;;
28003;SDS011;15330;51.234;6.754;2023-07-13T00:29:55;8.43;;;2.72;;
28003;SDS011;15330;51.234;6.754;2023-07-13T00:32:20;8.68;;;3.13;;
28003;SDS011;15330;51.234;6.754;2023-07-13T00:34:45;7.65;;;2.38;;
28003;SDS011;15330;51.234;6.754;2023-07-13T00:37:11;7.85;;;2.42;;
28003;SDS011;15330;51.234;6.754;2023-07-13T00:39:36;7.95;;;2.17;;
28003;SDS011;15330;51.234;6.754;2023-07-13T00:42:02;9.85;;;2.33;;
28003;SDS011;15330;51.234;6.754;2023-07-13T00:44:29;11.13;;;2.28;;
28003;SDS011;15330;51.234;6.754;2023-07-13T00:46:55;8.57;;;2.08;;
28003;SDS011;15330;51.234;6.754;2023-07-13T00:49:22;6.28;;;2.38;;
28003;SDS011;15330;51.234;6.754;2023-07-13T00:54:24;9.88;;;2.33;;
28003;SDS011;15330;51.234;6.754;2023-07-13T00:57:01;5.95;;;1.70;;
28003;SDS011;15330;51.234;6.754;2023-07-13T00:59:29;6.95;;;1.98;;
28003;SDS011;15330;51.234;6.754;2023-07-13T01:01:55;7.78;;;1.75;;
28003;SDS011;15330;51.234;6.754;2023-07-13T01:04:23;6.90;;;2.38;;
28003;SDS011;15330;51.234;6.754;2023-07-13T01:06:50;7.95;;;1.83;;
28003;SDS011;15330;51.234;6.754;2023-07-13T01:09:15;8.35;;;1.90;;
28003;SDS011;15330;51.234;6.754;2023-07-13T01:11:41;7.63;;;1.90;;
28003;SDS011;15330;51.234;6.754;2023-07-13T01:14:07;4.85;;;1.50;;
28003;SDS011;15330;51.234;6.754;2023-07-13T01:16:34;6.97;;;1.83;;
28003;SDS011;15330;51.234;6.754;2023-07-13T01:19:01;8.45;;;1.92;;
28003;SDS011;15330;51.234;6.754;2023-07-13T01:21:29;10.60;;;3.00;;
28003;SDS011;15330;51.234;6.754;2023-07-13T01:23:58;9.25;;;2.20;;
28003;SDS011;15330;51.234;6.754;2023-07-13T01:26:24;9.93;;;2.35;;
28003;SDS011;15330;51.234;6.754;2023-07-13T01:28:49;10.57;;;2.22;;
28003;SDS011;15330;51.234;6.754;2023-07-13T01:31:15;11.77;;;2.20;;
28003;SDS011;15330;51.234;6.754;2023-07-13T01:33:40;5.57;;;1.60;;
28003;SDS011;15330;51.234;6.754;2023-07-13T01:36:07;11.65;;;2.50;;
28003;SDS011;15330;51.234;6.754;2023-07-13T01:38:34;8.07;;;1.92;;
28003;SDS011;15330;51.234;6.754;2023-07-13T01:41:01;7.78;;;2.33;;
28003;SDS011;15330;51.234;6.754;2023-07-13T01:43:27;12.32;;;2.10;;
28003;SDS011;15330;51.234;6.754;2023-07-13T01:45:52;8.80;;;2.38;;
28003;SDS011;15330;51.234;6.754;2023-07-13T01:48:18;5.82;;;1.63;;
28003;SDS011;15330;51.234;6.754;2023-07-13T01:50:44;4.97;;;1.67;;
28003;SDS011;15330;51.234;6.754;2023-07-13T01:53:09;7.85;;;2.38;;
28003;SDS011;15330;51.234;6.754;2023-07-13T01:55:35;9.80;;;2.53;;
28003;SDS011;15330;51.234;6.754;2023-07-13T01:58:01;11.40;;;2.50;;
28003;SDS011;15330;51.234;6.754;2023-07-13T02:00:27;9.63;;;1.80;;
28003;SDS011;15330;51.234;6.754;2023-07-13T02:02:52;5.45;;;2.13;;
28003;SDS011;15330;51.234;6.754;2023-07-13T02:05:18;10.30;;;2.38;;
28003;SDS011;15330;51.234;6.754;2023-07-13T02:07:43;11.95;;;2.67;;
28003;SDS011;15330;51.234;6.754;2023-07-13T02:10:09;10.48;;;2.25;;
28003;SDS011;15330;51.234;6.754;2023-07-13T02:12:35;7.38;;;1.85;;
28003;SDS011;15330;51.234;6.754;2023-07-13T02:15:02;7.57;;;1.88;;
28003;SDS011;15330;51.234;6.754;2023-07-13T02:17:28;9.20;;;2.05;;
28003;SDS011;15330;51.234;6.754;2023-07-13T02:19:53;5.43;;;1.77;;
28003;SDS011;15330;51.234;6.754;2023-07-13T02:22:19;8.02;;;2.10;;
28003;SDS011;15330;51.234;6.754;2023-07-13T02:24:45;8.27;;;2.08;;
28003;SDS011;15330;51.234;6.754;2023-07-13T02:27:10;8.75;;;2.20;;
28003;SDS011;15330;51.234;6.754;2023-07-13T02:29:35;8.57;;;2.20;;
28003;SDS011;15330;51.234;6.754;2023-07-13T02:32:01;6.82;;;1.75;;
28003;SDS011;15330;51.234;6.754;2023-07-13T02:34:26;4.18;;;2.20;;
28003;SDS011;15330;51.234;6.754;2023-07-13T02:36:52;7.03;;;2.20;;
28003;SDS011;15330;51.234;6.754;2023-07-13T02:39:17;9.93;;;2.45;;
28003;SDS011;15330;51.234;6.754;2023-07-13T02:41:43;10.25;;;2.30;;
28003;SDS011;15330;51.234;6.754;2023-07-13T02:44:08;11.25;;;2.10;;
28003;SDS011;15330;51.234;6.754;2023-07-13T02:46:35;7.20;;;2.22;;
28003;SDS011;15330;51.234;6.754;2023-07-13T02:49:01;7.30;;;2.50;;
28003;SDS011;15330;51.234;6.754;2023-07-13T02:51:27;13.73;;;2.63;;
28003;SDS011;15330;51.234;6.754;2023-07-13T02:53:53;13.10;;;2.75;;
28003;SDS011;15330;51.234;6.754;2023-07-13T02:56:21;6.18;;;2.15;;
28003;SDS011;15330;51.234;6.754;2023-07-13T02:58:48;10.77;;;2.30;;
28003;SDS011;15330;51.234;6.754;2023-07-13T03:01:13;11.82;;;2.42;;
28003;SDS011;15330;51.234;6.754;2023-07-13T03:03:43;14.15;;;2.85;;
28003;SDS011;15330;51.234;6.754;2023-07-13T03:06:13;9.18;;;2.83;;
28003;SDS011;15330;51.234;6.754;2023-07-13T03:08:39;10.30;;;2.13;;
28003;SDS011;15330;51.234;6.754;2023-07-13T03:11:12;6.00;;;2.58;;
28003;SDS011;15330;51.234;6.754;2023-07-13T03:13:40;8.57;;;2.10;;
28003;SDS011;15330;51.234;6.754;2023-07-13T03:16:06;7.03;;;2.13;;
28003;SDS011;15330;51.234;6.754;2023-07-13T03:18:32;9.98;;;2.47;;
28003;SDS011;15330;51.234;6.754;2023-07-13T03:20:59;8.63;;;2.35;;
28003;SDS011;15330;51.234;6.754;2023-07-13T03:23:25;8.55;;;2.20;;
28003;SDS011;15330;51.234;6.754;2023-07-13T03:26:00;9.13;;;2.13;;
28003;SDS011;15330;51.234;6.754;2023-07-13T03:28:27;7.07;;;2.55;;
28003;SDS011;15330;51.234;6.754;2023-07-13T03:31:02;5.43;;;2.30;;
28003;SDS011;15330;51.234;6.754;2023-07-13T03:33:29;10.38;;;2.05;;
28003;SDS011;15330;51.234;6.754;2023-07-13T03:35:55;7.82;;;2.40;;
28003;SDS011;15330;51.234;6.754;2023-07-13T03:38:21;12.45;;;2.60;;
28003;SDS011;15330;51.234;6.754;2023-07-13T03:40:47;6.93;;;2.10;;
28003;SDS011;15330;51.234;6.754;2023-07-13T03:43:12;9.60;;;2.10;;
28003;SDS011;15330;51.234;6.754;2023-07-13T03:45:37;11.23;;;2.13;;
28003;SDS011;15330;51.234;6.754;2023-07-13T03:48:04;7.78;;;2.15;;
28003;SDS011;15330;51.234;6.754;2023-07-13T03:50:30;11.32;;;2.40;;
28003;SDS011;15330;51.234;6.754;2023-07-13T03:52:56;6.22;;;2.22;;
28003;SDS011;15330;51.234;6.754;2023-07-13T03:55:22;7.40;;;2.20;;
28003;SDS011;15330;51.234;6.754;2023-07-13T03:57:52;7.93;;;2.10;;
28003;SDS011;15330;51.234;6.754;2023-07-13T04:00:19;7.35;;;2.55;;
28003;SDS011;15330;51.234;6.754;2023-07-13T04:02:44;8.40;;;2.55;;
28003;SDS011;15330;51.234;6.754;2023-07-13T04:05:12;8.68;;;2.70;;
28003;SDS011;15330;51.234;6.754;2023-07-13T04:07:37;8.77;;;2.28;;
28003;SDS011;15330;51.234;6.754;2023-07-13T04:10:03;9.70;;;2.53;;
28003;SDS011;15330;51.234;6.754;2023-07-13T04:12:28;9.80;;;2.78;;
28003;SDS011;15330;51.234;6.754;2023-07-13T04:14:54;7.90;;;2.47;;
28003;SDS011;15330;51.234;6.754;2023-07-13T04:17:19;12.98;;;2.75;;
28003;SDS011;15330;51.234;6.754;2023-07-13T04:19:44;15.93;;;3.63;;
28003;SDS011;15330;51.234;6.754;2023-07-13T04:22:10;10.45;;;3.25;;
28003;SDS011;15330;51.234;6.754;2023-07-13T04:24:35;19.80;;;3.75;;
28003;SDS011;15330;51.234;6.754;2023-07-13T04:27:01;11.68;;;3.42;;
28003;SDS011;15330;51.234;6.754;2023-07-13T04:29:28;9.65;;;3.30;;
28003;SDS011;15330;51.234;6.754;2023-07-13T04:31:53;10.05;;;3.30;;
28003;SDS011;15330;51.234;6.754;2023-07-13T04:34:18;10.98;;;4.20;;
28003;SDS011;15330;51.234;6.754;2023-07-13T04:36:44;14.23;;;3.83;;
28003;SDS011;15330;51.234;6.754;2023-07-13T04:39:09;14.75;;;3.90;;
28003;SDS011;15330;51.234;6.754;2023-07-13T04:41:34;12.88;;;3.10;;
28003;SDS011;15330;51.234;6.754;2023-07-13T04:44:00;15.77;;;3.45;;
28003;SDS011;15330;51.234;6.754;2023-07-13T04:46:25;11.00;;;3.40;;
28003;SDS011;15330;51.234;6.754;2023-07-13T04:48:51;10.73;;;3.20;;
28003;SDS011;15330;51.234;6.754;2023-07-13T04:51:18;22.33;;;3.97;;
28003;SDS011;15330;51.234;6.754;2023-07-13T04:53:43;10.00;;;3.05;;
28003;SDS011;15330;51.234;6.754;2023-07-13T04:56:09;14.57;;;4.03;;
28003;SDS011;15330;51.234;6.754;2023-07-13T04:58:34;13.55;;;2.85;;
28003;SDS011;15330;51.234;6.754;2023-07-13T05:01:00;13.32;;;2.88;;
28003;SDS011;15330;51.234;6.754;2023-07-13T05:03:27;12.68;;;2.92;;
28003;SDS011;15330;51.234;6.754;2023-07-13T05:05:56;9.30;;;2.70;;
28003;SDS011;15330;51.234;6.754;2023-07-13T05:08:32;10.68;;;2.95;;
28003;SDS011;15330;51.234;6.754;2023-07-13T05:10:59;14.90;;;3.25;;
28003;SDS011;15330;51.234;6.754;2023-07-13T05:13:25;13.25;;;3.72;;
28003;SDS011;15330;51.234;6.754;2023-07-13T05:16:00;12.57;;;4.18;;
28003;SDS011;15330;51.234;6.754;2023-07-13T05:18:28;13.98;;;4.05;;
28003;SDS011;15330;51.234;6.754;2023-07-13T05:20:57;12.25;;;4.10;;
28003;SDS011;15330;51.234;6.754;2023-07-13T05:23:24;8.57;;;3.40;;
28003;SDS011;15330;51.234;6.754;2023-07-13T05:25:49;11.60;;;3.30;;
28003;SDS011;15330;51.234;6.754;2023-07-13T05:28:15;11.45;;;3.30;;
28003;SDS011;15330;51.234;6.754;2023-07-13T05:30:44;12.73;;;3.00;;
28003;SDS011;15330;51.234;6.754;2023-07-13T05:33:11;16.40;;;3.05;;
28003;SDS011;15330;51.234;6.754;2023-07-13T05:35:36;11.23;;;2.90;;
28003;SDS011;15330;51.234;6.754;2023-07-13T05:38:02;12.80;;;3.35;;
28003;SDS011;15330;51.234;6.754;2023-07-13T05:40:27;13.25;;;3.60;;
28003;SDS011;15330;51.234;6.754;2023-07-13T05:42:53;10.80;;;2.88;;
28003;SDS011;15330;51.234;6.754;2023-07-13T05:45:19;8.02;;;3.10;;
28003;SDS011;15330;51.234;6.754;2023-07-13T05:47:44;12.32;;;2.72;;
28003;SDS011;15330;51.234;6.754;2023-07-13T05:50:09;13.48;;;3.33;;
28003;SDS011;15330;51.234;6.754;2023-07-13T05:52:35;12.55;;;3.65;;
28003;SDS011;15330;51.234;6.754;2023-07-13T05:55:00;10.40;;;3.20;;
28003;SDS011;15330;51.234;6.754;2023-07-13T05:57:26;11.43;;;3.03;;
28003;SDS011;15330;51.234;6.754;2023-07-13T05:59:51;16.13;;;4.00;;
28003;SDS011;15330;51.234;6.754;2023-07-13T06:02:16;12.13;;;2.60;;
28003;SDS011;15330;51.234;6.754;2023-07-13T06:04:42;13.27;;;2.90;;
28003;SDS011;15330;51.234;6.754;2023-07-13T06:07:07;9.60;;;3.22;;
28003;SDS011;15330;51.234;6.754;2023-07-13T06:09:32;8.45;;;2.75;;
28003;SDS011;15330;51.234;6.754;2023-07-13T06:11:58;6.53;;;2.75;;
28003;SDS011;15330;51.234;6.754;2023-07-13T06:14:24;7.72;;;2.50;;
28003;SDS011;15330;51.234;6.754;2023-07-13T06:16:50;14.30;;;3.63;;
28003;SDS011;15330;51.234;6.754;2023-07-13T06:19:15;10.82;;;3.00;;
28003;SDS011;15330;51.234;6.754;2023-07-13T06:21:40;12.25;;;3.03;;
28003;SDS011;15330;51.234;6.754;2023-07-13T06:24:06;15.32;;;4.30;;
28003;SDS011;15330;51.234;6.754;2023-07-13T06:26:31;10.63;;;2.97;;
28003;SDS011;15330;51.234;6.754;2023-07-13T06:28:57;17.00;;;3.70;;
28003;SDS011;15330;51.234;6.754;2023-07-13T06:31:22;11.63;;;3.88;;
28003;SDS011;15330;51.234;6.754;2023-07-13T06:33:47;12.02;;;3.40;;
28003;SDS011;15330;51.234;6.754;2023-07-13T06:36:13;10.05;;;3.22;;
28003;SDS011;15330;51.234;6.754;2023-07-13T06:38:40;8.77;;;3.30;;
28003;SDS011;15330;51.234;6.754;2023-07-13T06:41:06;10.75;;;4.50;;
28003;SDS011;15330;51.234;6.754;2023-07-13T06:43:32;8.55;;;3.47;;
28003;SDS011;15330;51.234;6.754;2023-07-13T06:45:58;13.65;;;4.30;;
28003;SDS011;15330;51.234;6.754;2023-07-13T06:48:23;16.45;;;4.13;;
28003;SDS011;15330;51.234;6.754;2023-07-13T06:50:49;11.10;;;3.55;;
28003;SDS011;15330;51.234;6.754;2023-07-13T06:53:16;11.00;;;3.78;;
28003;SDS011;15330;51.234;6.754;2023-07-13T06:55:43;16.95;;;4.75;;
28003;SDS011;15330;51.234;6.754;2023-07-13T06:58:09;16.38;;;4.88;;
28003;SDS011;15330;51.234;6.754;2023-07-13T07:00:35;12.13;;;3.95;;
28003;SDS011;15330;51.234;6.754;2023-07-13T07:03:00;12.02;;;3.60;;
28003;SDS011;15330;51.234;6.754;2023-07-13T07:05:26;11.30;;;3.65;;
28003;SDS011;15330;51.234;6.754;2023-07-13T07:07:51;13.85;;;3.42;;
28003;SDS011;15330;51.234;6.754;2023-07-13T07:10:19;9.23;;;3.30;;
28003;SDS011;15330;51.234;6.754;2023-07-13T07:12:45;11.45;;;3.40;;
28003;SDS011;15330;51.234;6.754;2023-07-13T07:15:10;14.48;;;3.65;;
28003;SDS011;15330;51.234;6.754;2023-07-13T07:17:36;10.80;;;4.20;;
28003;SDS011;15330;51.234;6.754;2023-07-13T07:20:02;12.40;;;3.42;;
28003;SDS011;15330;51.234;6.754;2023-07-13T07:22:28;12.68;;;4.43;;
28003;SDS011;15330;51.234;6.754;2023-07-13T07:24:55;13.75;;;3.80;;
28003;SDS011;15330;51.234;6.754;2023-07-13T07:27:21;12.27;;;4.53;;
28003;SDS011;15330;51.234;6.754;2023-07-13T07:29:46;11.32;;;3.42;;
28003;SDS011;15330;51.234;6.754;2023-07-13T07:32:11;13.70;;;3.80;;
28003;SDS011;15330;51.234;6.754;2023-07-13T07:34:37;13.98;;;3.78;;
28003;SDS011;15330;51.234;6.754;2023-07-13T07:37:02;11.05;;;4.10;;
28003;SDS011;15330;51.234;6.754;2023-07-13T07:39:28;12.77;;;3.92;;
28003;SDS011;15330;51.234;6.754;2023-07-13T07:41:54;8.55;;;4.28;;
28003;SDS011;15330;51.234;6.754;2023-07-13T07:44:20;11.68;;;4.35;;
28003;SDS011;15330;51.234;6.754;2023-07-13T07:46:45;13.63;;;4.03;;
28003;SDS011;15330;51.234;6.754;2023-07-13T07:49:11;12.85;;;3.78;;
28003;SDS011;15330;51.234;6.754;2023-07-13T07:51:36;14.20;;;4.50;;
28003;SDS011;15330;51.234;6.754;2023-07-13T07:54:03;11.32;;;3.78;;
28003;SDS011;15330;51.234;6.754;2023-07-13T07:56:29;10.68;;;4.05;;
28003;SDS011;15330;51.234;6.754;2023-07-13T07:58:54;9.82;;;3.65;;
28003;SDS011;15330;51.234;6.754;2023-07-13T08:01:20;10.50;;;3.65;;
28003;SDS011;15330;51.234;6.754;2023-07-13T08:03:46;11.43;;;3.78;;
28003;SDS011;15330;51.234;6.754;2023-07-13T08:06:11;7.88;;;3.58;;
28003;SDS011;15330;51.234;6.754;2023-07-13T08:08:37;12.38;;;3.92;;
28003;SDS011;15330;51.234;6.754;2023-07-13T08:11:04;12.80;;;3.90;;
28003;SDS011;15330;51.234;6.754;2023-07-13T08:13:33;14.25;;;4.68;;
28003;SDS011;15330;51.234;6.754;2023-07-13T08:15:59;19.48;;;4.70;;
28003;SDS011;15330;51.234;6.754;2023-07-13T08:18:24;12.43;;;4.10;;
28003;SDS011;15330;51.234;6.754;2023-07-13T08:20:50;9.25;;;3.60;;
28003;SDS011;15330;51.234;6.754;2023-07-13T08:23:15;12.77;;;3.83;;
28003;SDS011;15330;51.234;6.754;2023-07-13T08:25:41;13.90;;;3.97;;
28003;SDS011;15330;51.234;6.754;2023-07-13T08:28:07;9.82;;;3.60;;
28003;SDS011;15330;51.234;6.754;2023-07-13T08:30:33;10.85;;;3.67;;
28003;SDS011;15330;51.234;6.754;2023-07-13T08:32:58;9.27;;;3.38;;
28003;SDS011;15330;51.234;6.754;2023-07-13T08:35:24;14.05;;;3.72;;
28003;SDS011;15330;51.234;6.754;2023-07-13T08:37:50;11.10;;;3.50;;
28003;SDS011;15330;51.234;6.754;2023-07-13T08:40:16;15.00;;;4.10;;
28003;SDS011;15330;51.234;6.754;2023-07-13T08:42:45;13.43;;;3.95;;
28003;SDS011;15330;51.234;6.754;2023-07-13T08:48:13;12.98;;;3.72;;
28003;SDS011;15330;51.234;6.754;2023-07-13T08:53:35;11.23;;;4.45;;
28003;SDS011;15330;51.234;6.754;2023-07-13T08:56:04;9.80;;;4.22;;
28003;SDS011;15330;51.234;6.754;2023-07-13T08:58:34;12.63;;;3.83;;
28003;SDS011;15330;51.234;6.754;2023-07-13T09:01:03;12.20;;;4.30;;
28003;SDS011;15330;51.234;6.754;2023-07-13T09:03:42;11.15;;;4.18;;
28003;SDS011;15330;51.234;6.754;2023-07-13T09:06:56;9.23;;;4.40;;
28003;SDS011;15330;51.234;6.754;2023-07-13T09:17:05;12.57;;;3.92;;
28003;SDS011;15330;51.234;6.754;2023-07-13T09:19:35;14.43;;;3.60;;
28003;SDS011;15330;51.234;6.754;2023-07-13T09:22:02;10.82;;;3.55;;
28003;SDS011;15330;51.234;6.754;2023-07-13T09:27:19;15.40;;;3.90;;
28003;SDS011;15330;51.234;6.754;2023-07-13T09:32:37;10.48;;;3.10;;
28003;SDS011;15330;51.234;6.754;2023-07-13T09:35:12;10.48;;;3.55;;
28003;SDS011;15330;51.234;6.754;2023-07-13T09:37:40;13.15;;;3.83;;
28003;SDS011;15330;51.234;6.754;2023-07-13T09:40:30;8.80;;;3.50;;
28003;SDS011;15330;51.234;6.754;2023-07-13T09:43:05;6.50;;;3.15;;
28003;SDS011;15330;51.234;6.754;2023-07-13T09:45:35;9.57;;;3.05;;
28003;SDS011;15330;51.234;6.754;2023-07-13T09:48:11;12.23;;;4.05;;
28003;SDS011;15330;51.234;6.754;2023-07-13T09:50:41;9.68;;;3.88;;
28003;SDS011;15330;51.234;6.754;2023-07-13T09:53:18;5.38;;;3.08;;
28003;SDS011;15330;51.234;6.754;2023-07-13T09:55:45;11.30;;;3.30;;
28003;SDS011;15330;51.234;6.754;2023-07-13T09:58:16;6.97;;;2.90;;
28003;SDS011;15330;51.234;6.754;2023-07-13T10:00:53;7.97;;;2.78;;
28003;SDS011;15330;51.234;6.754;2023-07-13T10:03:32;11.63;;;2.97;;
28003;SDS011;15330;51.234;6.754;2023-07-13T10:06:13;8.43;;;2.80;;
28003;SDS011;15330;51.234;6.754;2023-07-13T10:08:40;6.40;;;2.90;;
28003;SDS011;15330;51.234;6.754;2023-07-13T10:11:17;9.52;;;2.50;;
28003;SDS011;15330;51.234;6.754;2023-07-13T10:13:46;7.20;;;2.97;;
28003;SDS011;15330;51.234;6.754;2023-07-13T10:16:20;7.28;;;2.72;;
28003;SDS011;15330;51.234;6.754;2023-07-13T10:18:55;7.22;;;2.63;;
28003;SDS011;15330;51.234;6.754;2023-07-13T10:24:15;8.77;;;2.67;;
28003;SDS011;15330;51.234;6.754;2023-07-13T10:27:11;7.50;;;2.67;;
28003;SDS011;15330;51.234;6.754;2023-07-13T10:32:23;6.90;;;2.50;;
28003;SDS011;15330;51.234;6.754;2023-07-13T10:34:49;9.48;;;2.90;;
28003;SDS011;15330;51.234;6.754;2023-07-13T10:37:24;7.20;;;2.55;;
28003;SDS011;15330;51.234;6.754;2023-07-13T10:39:53;7.15;;;2.97;;
28003;SDS011;15330;51.234;6.754;2023-07-13T10:44:58;8.63;;;3.05;;
28003;SDS011;15330;51.234;6.754;2023-07-13T10:47:24;9.52;;;3.08;;
28003;SDS011;15330;51.234;6.754;2023-07-13T10:49:50;5.82;;;2.30;;
28003;SDS011;15330;51.234;6.754;2023-07-13T10:58:03;9.73;;;3.10;;
28003;SDS011;15330;51.234;6.754;2023-07-13T11:03:28;7.85;;;2.67;;
28003;SDS011;15330;51.234;6.754;2023-07-13T11:06:07;7.07;;;2.35;;
28003;SDS011;15330;51.234;6.754;2023-07-13T11:08:35;9.52;;;2.53;;
28003;SDS011;15330;51.234;6.754;2023-07-13T11:13:58;8.25;;;2.85;;
28003;SDS011;15330;51.234;6.754;2023-07-13T11:16:36;11.60;;;2.45;;
28003;SDS011;15330;51.234;6.754;2023-07-13T11:21:33;10.87;;;3.13;;
28003;SDS011;15330;51.234;6.754;2023-07-13T11:31:42;7.28;;;2.38;;
28003;SDS011;15330;51.234;6.754;2023-07-13T11:34:16;7.03;;;2.40;;
28003;SDS011;15330;51.234;6.754;2023-07-13T11:36:46;8.25;;;2.38;;
28003;SDS011;15330;51.234;6.754;2023-07-13T11:39:24;7.13;;;2.60;;
28003;SDS011;15330;51.234;6.754;2023-07-13T11:41:56;6.47;;;2.45;;
28003;SDS011;15330;51.234;6.754;2023-07-13T11:44:25;7.53;;;2.33;;
28003;SDS011;15330;51.234;6.754;2023-07-13T11:49:20;7.07;;;2.22;;
28003;SDS011;15330;51.234;6.754;2023-07-13T11:51:52;5.03;;;1.98;;
28003;SDS011;15330;51.234;6.754;2023-07-13T11:56:52;7.85;;;2.65;;
28003;SDS011;15330;51.234;6.754;2023-07-13T11:59:20;7.30;;;1.95;;
28003;SDS011;15330;51.234;6.754;2023-07-13T12:01:47;5.50;;;2.50;;
28003;SDS011;15330;51.234;6.754;2023-07-13T12:04:24;4.70;;;2.00;;
28003;SDS011;15330;51.234;6.754;2023-07-13T12:06:56;7.80;;;2.47;;
28003;SDS011;15330;51.234;6.754;2023-07-13T12:09:28;6.00;;;2.13;;
28003;SDS011;15330;51.234;6.754;2023-07-13T12:11:54;7.13;;;2.22;;
28003;SDS011;15330;51.234;6.754;2023-07-13T12:14:21;9.70;;;2.15;;
28003;SDS011;15330;51.234;6.754;2023-07-13T12:16:49;5.68;;;1.88;;
28003;SDS011;15330;51.234;6.754;2023-07-13T12:19:22;6.60;;;2.10;;
28003;SDS011;15330;51.234;6.754;2023-07-13T12:21:50;4.57;;;1.80;;
28003;SDS011;15330;51.234;6.754;2023-07-13T12:24:19;8.63;;;2.67;;
28003;SDS011;15330;51.234;6.754;2023-07-13T12:27:03;4.45;;;1.92;;
28003;SDS011;15330;51.234;6.754;2023-07-13T12:29:30;5.05;;;1.85;;
28003;SDS011;15330;51.234;6.754;2023-07-13T12:31:59;5.82;;;2.22;;
28003;SDS011;15330;51.234;6.754;2023-07-13T12:34:25;5.78;;;1.75;;
28003;SDS011;15330;51.234;6.754;2023-07-13T12:39:30;4.90;;;1.60;;
28003;SDS011;15330;51.234;6.754;2023-07-13T12:42:09;4.78;;;1.70;;
28003;SDS011;15330;51.234;6.754;2023-07-13T12:44:42;5.03;;;1.90;;
28003;SDS011;15330;51.234;6.754;2023-07-13T12:47:11;5.55;;;1.88;;
28003;SDS011;15330;51.234;6.754;2023-07-13T12:49:40;6.22;;;2.00;;
28003;SDS011;15330;51.234;6.754;2023-07-13T12:52:21;4.65;;;1.60;;
28003;SDS011;15330;51.234;6.754;2023-07-13T12:55:05;5.85;;;2.10;;
28003;SDS011;15330;51.234;6.754;2023-07-13T12:57:45;6.60;;;1.92;;
28003;SDS011;15330;51.234;6.754;2023-07-13T13:02:58;4.63;;;1.60;;
28003;SDS011;15330;51.234;6.754;2023-07-13T13:05:28;5.10;;;1.88;;
28003;SDS011;15330;51.234;6.754;2023-07-13T13:07:55;7.32;;;2.20;;
28003;SDS011;15330;51.234;6.754;2023-07-13T13:10:21;5.10;;;1.67;;
28003;SDS011;15330;51.234;6.754;2023-07-13T13:12:46;6.03;;;2.40;;
28003;SDS011;15330;51.234;6.754;2023-07-13T13:15:13;4.47;;;1.70;;
28003;SDS011;15330;51.234;6.754;2023-07-13T13:17:39;5.28;;;1.90;;
28003;SDS011;15330;51.234;6.754;2023-07-13T13:20:13;4.55;;;1.70;;
28003;SDS011;15330;51.234;6.754;2023-07-13T13:22:39;8.57;;;2.08;;
28003;SDS011;15330;51.234;6.754;2023-07-13T13:25:04;6.32;;;1.80;;
28003;SDS011;15330;51.234;6.754;2023-07-13T13:27:30;9.05;;;1.80;;
28003;SDS011;15330;51.234;6.754;2023-07-13T13:29:55;5.85;;;2.00;;
28003;SDS011;15330;51.234;6.754;2023-07-13T13:32:21;3.88;;;1.65;;
28003;SDS011;15330;51.234;6.754;2023-07-13T13:34:46;5.47;;;2.22;;
28003;SDS011;15330;51.234;6.754;2023-07-13T13:37:19;7.03;;;1.92;;
28003;SDS011;15330;51.234;6.754;2023-07-13T13:39:46;5.00;;;2.05;;
28003;SDS011;15330;51.234;6.754;2023-07-13T13:42:13;11.23;;;2.22;;
28003;SDS011;15330;51.234;6.754;2023-07-13T13:44:38;3.95;;;1.75;;
28003;SDS011;15330;51.234;6.754;2023-07-13T13:47:07;6.20;;;2.33;;
28003;SDS011;15330;51.234;6.754;2023-07-13T13:49:53;5.32;;;1.58;;
28003;SDS011;15330;51.234;6.754;2023-07-13T13:52:19;6.38;;;1.65;;
28003;SDS011;15330;51.234;6.754;2023-07-13T13:54:44;4.65;;;2.03;;
28003;SDS011;15330;51.234;6.754;2023-07-13T13:57:09;3.00;;;1.40;;
28003;SDS011;15330;51.234;6.754;2023-07-13T13:59:37;5.28;;;2.10;;
28003;SDS011;15330;51.234;6.754;2023-07-13T14:02:09;4.78;;;1.90;;
28003;SDS011;15330;51.234;6.754;2023-07-13T14:04:47;4.82;;;1.67;;
28003;SDS011;15330;51.234;6.754;2023-07-13T14:07:14;4.68;;;2.10;;
28003;SDS011;15330;51.234;6.754;2023-07-13T14:09:39;9.52;;;1.77;;
28003;SDS011;15330;51.234;6.754;2023-07-13T14:12:05;6.65;;;2.25;;
28003;SDS011;15330;51.234;6.754;2023-07-13T14:14:37;6.10;;;2.00;;
28003;SDS011;15330;51.234;6.754;2023-07-13T14:17:03;7.85;;;1.73;;
28003;SDS011;15330;51.234;6.754;2023-07-13T14:19:29;12.65;;;2.25;;
28003;SDS011;15330;51.234;6.754;2023-07-13T14:21:54;4.35;;;1.80;;
28003;SDS011;15330;51.234;6.754;2023-07-13T14:24:20;5.15;;;2.20;;
28003;SDS011;15330;51.234;6.754;2023-07-13T14:26:46;4.47;;;2.00;;
28003;SDS011;15330;51.234;6.754;2023-07-13T14:29:13;7.03;;;1.90;;
28003;SDS011;15330;51.234;6.754;2023-07-13T14:31:40;6.68;;;2.22;;
28003;SDS011;15330;51.234;6.754;2023-07-13T14:34:07;7.78;;;2.05;;
28003;SDS011;15330;51.234;6.754;2023-07-13T14:36:34;6.07;;;1.75;;
28003;SDS011;15330;51.234;6.754;2023-07-13T14:39:23;8.25;;;2.13;;
28003;SDS011;15330;51.234;6.754;2023-07-13T14:41:50;7.63;;;1.98;;
28003;SDS011;15330;51.234;6.754;2023-07-13T14:44:20;5.35;;;2.00;;
28003;SDS011;15330;51.234;6.754;2023-07-13T14:46:49;6.38;;;2.10;;
28003;SDS011;15330;51.234;6.754;2023-07-13T14:49:37;6.38;;;2.40;;
28003;SDS011;15330;51.234;6.754;2023-07-13T14:52:11;9.57;;;2.72;;
28003;SDS011;15330;51.234;6.754;2023-07-13T14:54:45;5.13;;;1.92;;
28003;SDS011;15330;51.234;6.754;2023-07-13T14:57:15;8.90;;;2.28;;
28003;SDS011;15330;51.234;6.754;2023-07-13T14:59:43;3.50;;;2.17;;
28003;SDS011;15330;51.234;6.754;2023-07-13T15:04:55;5.78;;;2.10;;
28003;SDS011;15330;51.234;6.754;2023-07-13T15:07:21;5.63;;;2.10;;
28003;SDS011;15330;51.234;6.754;2023-07-13T15:09:48;5.18;;;2.13;;
28003;SDS011;15330;51.234;6.754;2023-07-13T15:12:14;9.52;;;2.40;;
28003;SDS011;15330;51.234;6.754;2023-07-13T15:14:39;6.85;;;1.85;;
28003;SDS011;15330;51.234;6.754;2023-07-13T15:17:05;8.48;;;1.90;;
28003;SDS011;15330;51.234;6.754;2023-07-13T15:19:50;3.35;;;1.85;;
28003;SDS011;15330;51.234;6.754;2023-07-13T15:22:16;5.90;;;2.28;;
28003;SDS011;15330;51.234;6.754;2023-07-13T15:24:41;7.65;;;2.30;;
28003;SDS011;15330;51.234;6.754;2023-07-13T15:27:10;4.95;;;2.28;;
28003;SDS011;15330;51.234;6.754;2023-07-13T15:29:37;8.13;;;2.40;;
28003;SDS011;15330;51.234;6.754;2023-07-13T15:32:02;5.00;;;2.63;;
28003;SDS011;15330;51.234;6.754;2023-07-13T15:34:28;6.50;;;2.53;;
28003;SDS011;15330;51.234;6.754;2023-07-13T15:36:53;7.93;;;2.65;;
28003;SDS011;15330;51.234;6.754;2023-07-13T15:39:19;6.53;;;2.42;;
28003;SDS011;15330;51.234;6.754;2023-07-13T15:41:45;6.13;;;2.58;;
28003;SDS011;15330;51.234;6.754;2023-07-13T15:44:22;8.18;;;2.75;;
28003;SDS011;15330;51.234;6.754;2023-07-13T15:46:55;4.68;;;2.25;;
28003;SDS011;15330;51.234;6.754;2023-07-13T15:49:21;7.25;;;2.50;;
28003;SDS011;15330;51.234;6.754;2023-07-13T15:51:47;9.68;;;2.67;;